sensor_id;sensor_type;location;lat;lon;timestamp;P1;durP1;ratioP1;P2;durP2;ratioP2
6566;SDS011;3317;43.994;22.878;2022-08-04T00:01:20;6.33;;;3.50;;
6566;SDS011;3317;43.994;22.878;2022-08-04T00:03:54;7.90;;;3.90;;
6566;SDS011;3317;43.994;22.878;2022-08-04T00:06:32;4.13;;;3.60;;
6566;SDS011;3317;43.994;22.878;2022-08-04T00:09:07;4.47;;;3.27;;
6566;SDS011;3317;43.994;22.878;2022-08-04T00:11:40;3.73;;;3.43;;
6566;SDS011;3317;43.994;22.878;2022-08-04T00:14:12;5.83;;;3.70;;
6566;SDS011;3317;43.994;22.878;2022-08-04T00:16:41;4.53;;;3.67;;
6566;SDS011;3317;43.994;22.878;2022-08-04T00:19:09;4.47;;;3.90;;
6566;SDS011;3317;43.994;22.878;2022-08-04T00:21:41;4.37;;;3.50;;
6566;SDS011;3317;43.994;22.878;2022-08-04T00:24:17;3.90;;;3.60;;
6566;SDS011;3317;43.994;22.878;2022-08-04T00:26:47;4.63;;;3.60;;
6566;SDS011;3317;43.994;22.878;2022-08-04T00:29:14;5.40;;;3.60;;
6566;SDS011;3317;43.994;22.878;2022-08-04T00:31:42;8.90;;;4.60;;
6566;SDS011;3317;43.994;22.878;2022-08-04T00:34:09;4.03;;;3.43;;
6566;SDS011;3317;43.994;22.878;2022-08-04T00:36:40;5.27;;;3.60;;
6566;SDS011;3317;43.994;22.878;2022-08-04T00:39:10;3.77;;;3.27;;
6566;SDS011;3317;43.994;22.878;2022-08-04T00:41:40;3.93;;;3.40;;
6566;SDS011;3317;43.994;22.878;2022-08-04T00:44:21;4.20;;;3.80;;
6566;SDS011;3317;43.994;22.878;2022-08-04T00:47:09;4.83;;;3.57;;
6566;SDS011;3317;43.994;22.878;2022-08-04T00:49:57;4.07;;;3.60;;
6566;SDS011;3317;43.994;22.878;2022-08-04T00:55:44;5.17;;;3.23;;
6566;SDS011;3317;43.994;22.878;2022-08-04T00:58:28;4.40;;;3.90;;
6566;SDS011;3317;43.994;22.878;2022-08-04T01:01:11;5.30;;;3.83;;
6566;SDS011;3317;43.994;22.878;2022-08-04T01:03:59;5.37;;;3.90;;
6566;SDS011;3317;43.994;22.878;2022-08-04T01:06:36;4.10;;;3.70;;
6566;SDS011;3317;43.994;22.878;2022-08-04T01:09:11;4.67;;;3.80;;
6566;SDS011;3317;43.994;22.878;2022-08-04T01:11:53;4.87;;;3.73;;
6566;SDS011;3317;43.994;22.878;2022-08-04T01:14:35;4.07;;;3.50;;
6566;SDS011;3317;43.994;22.878;2022-08-04T01:17:18;4.20;;;3.73;;
6566;SDS011;3317;43.994;22.878;2022-08-04T01:22:45;3.90;;;3.47;;
6566;SDS011;3317;43.994;22.878;2022-08-04T01:25:39;4.10;;;3.70;;
6566;SDS011;3317;43.994;22.878;2022-08-04T01:28:33;6.23;;;3.83;;
6566;SDS011;3317;43.994;22.878;2022-08-04T01:31:15;4.83;;;3.63;;
6566;SDS011;3317;43.994;22.878;2022-08-04T01:33:53;4.10;;;3.60;;
6566;SDS011;3317;43.994;22.878;2022-08-04T01:36:25;4.10;;;3.70;;
6566;SDS011;3317;43.994;22.878;2022-08-04T01:38:58;4.07;;;3.67;;
6566;SDS011;3317;43.994;22.878;2022-08-04T01:41:47;5.70;;;3.90;;
6566;SDS011;3317;43.994;22.878;2022-08-04T01:44:17;4.57;;;3.70;;
6566;SDS011;3317;43.994;22.878;2022-08-04T01:46:46;3.60;;;3.30;;
6566;SDS011;3317;43.994;22.878;2022-08-04T01:49:16;5.30;;;4.13;;
6566;SDS011;3317;43.994;22.878;2022-08-04T01:51:47;6.87;;;3.70;;
6566;SDS011;3317;43.994;22.878;2022-08-04T01:54:17;5.83;;;3.60;;
6566;SDS011;3317;43.994;22.878;2022-08-04T01:56:46;4.00;;;3.60;;
6566;SDS011;3317;43.994;22.878;2022-08-04T01:59:17;3.93;;;3.63;;
6566;SDS011;3317;43.994;22.878;2022-08-04T02:01:46;4.60;;;3.83;;
6566;SDS011;3317;43.994;22.878;2022-08-04T02:04:14;7.13;;;3.60;;
6566;SDS011;3317;43.994;22.878;2022-08-04T02:06:53;4.13;;;3.40;;
6566;SDS011;3317;43.994;22.878;2022-08-04T02:09:29;4.20;;;3.63;;
6566;SDS011;3317;43.994;22.878;2022-08-04T02:12:04;3.67;;;3.37;;
6566;SDS011;3317;43.994;22.878;2022-08-04T02:14:37;4.50;;;4.10;;
6566;SDS011;3317;43.994;22.878;2022-08-04T02:17:12;5.93;;;3.77;;
6566;SDS011;3317;43.994;22.878;2022-08-04T02:19:47;4.87;;;4.13;;
6566;SDS011;3317;43.994;22.878;2022-08-04T02:22:28;7.77;;;3.90;;
6566;SDS011;3317;43.994;22.878;2022-08-04T02:25:01;4.50;;;3.73;;
6566;SDS011;3317;43.994;22.878;2022-08-04T02:27:33;4.67;;;3.30;;
6566;SDS011;3317;43.994;22.878;2022-08-04T02:30:33;3.80;;;3.50;;
6566;SDS011;3317;43.994;22.878;2022-08-04T02:33:09;4.00;;;3.33;;
6566;SDS011;3317;43.994;22.878;2022-08-04T02:35:42;5.30;;;3.50;;
6566;SDS011;3317;43.994;22.878;2022-08-04T02:38:23;5.50;;;4.10;;
6566;SDS011;3317;43.994;22.878;2022-08-04T02:40:59;4.40;;;3.90;;
6566;SDS011;3317;43.994;22.878;2022-08-04T02:43:27;4.77;;;3.57;;
6566;SDS011;3317;43.994;22.878;2022-08-04T02:45:58;4.00;;;3.50;;
6566;SDS011;3317;43.994;22.878;2022-08-04T02:48:29;5.00;;;4.17;;
6566;SDS011;3317;43.994;22.878;2022-08-04T02:51:00;4.23;;;3.83;;
6566;SDS011;3317;43.994;22.878;2022-08-04T02:53:29;4.20;;;3.80;;
6566;SDS011;3317;43.994;22.878;2022-08-04T02:55:58;6.20;;;3.80;;
6566;SDS011;3317;43.994;22.878;2022-08-04T02:58:26;5.30;;;4.20;;
6566;SDS011;3317;43.994;22.878;2022-08-04T03:00:59;5.90;;;4.40;;
6566;SDS011;3317;43.994;22.878;2022-08-04T03:03:33;5.93;;;4.20;;
6566;SDS011;3317;43.994;22.878;2022-08-04T03:12:19;4.30;;;3.90;;
6566;SDS011;3317;43.994;22.878;2022-08-04T03:15:28;4.40;;;3.97;;
6566;SDS011;3317;43.994;22.878;2022-08-04T03:18:28;5.93;;;4.20;;
6566;SDS011;3317;43.994;22.878;2022-08-04T03:24:46;12.27;;;5.30;;
6566;SDS011;3317;43.994;22.878;2022-08-04T03:27:44;4.37;;;3.97;;
6566;SDS011;3317;43.994;22.878;2022-08-04T03:30:32;6.50;;;4.00;;
6566;SDS011;3317;43.994;22.878;2022-08-04T03:39:21;4.63;;;4.23;;
6566;SDS011;3317;43.994;22.878;2022-08-04T03:42:36;8.57;;;4.27;;
6566;SDS011;3317;43.994;22.878;2022-08-04T03:45:38;4.50;;;3.90;;
6566;SDS011;3317;43.994;22.878;2022-08-04T03:48:36;6.77;;;4.30;;
6566;SDS011;3317;43.994;22.878;2022-08-04T03:51:26;6.10;;;4.10;;
6566;SDS011;3317;43.994;22.878;2022-08-04T03:57:24;5.57;;;3.90;;
6566;SDS011;3317;43.994;22.878;2022-08-04T04:00:12;5.77;;;4.67;;
6566;SDS011;3317;43.994;22.878;2022-08-04T04:11:53;4.87;;;4.37;;
6566;SDS011;3317;43.994;22.878;2022-08-04T04:17:38;9.63;;;4.93;;
6566;SDS011;3317;43.994;22.878;2022-08-04T04:20:26;6.80;;;4.57;;
6566;SDS011;3317;43.994;22.878;2022-08-04T04:23:10;5.73;;;4.70;;
6566;SDS011;3317;43.994;22.878;2022-08-04T04:25:54;6.43;;;5.37;;
6566;SDS011;3317;43.994;22.878;2022-08-04T04:28:37;18.20;;;5.50;;
6566;SDS011;3317;43.994;22.878;2022-08-04T04:31:26;19.00;;;5.07;;
6566;SDS011;3317;43.994;22.878;2022-08-04T04:34:07;9.87;;;4.83;;
6566;SDS011;3317;43.994;22.878;2022-08-04T04:36:48;8.30;;;4.67;;
6566;SDS011;3317;43.994;22.878;2022-08-04T04:39:31;9.77;;;4.60;;
6566;SDS011;3317;43.994;22.878;2022-08-04T04:42:18;7.90;;;5.23;;
6566;SDS011;3317;43.994;22.878;2022-08-04T04:45:12;7.40;;;5.03;;
6566;SDS011;3317;43.994;22.878;2022-08-04T04:47:51;8.30;;;4.87;;
6566;SDS011;3317;43.994;22.878;2022-08-04T04:50:25;5.33;;;4.30;;
6566;SDS011;3317;43.994;22.878;2022-08-04T04:53:02;7.33;;;4.60;;
6566;SDS011;3317;43.994;22.878;2022-08-04T04:55:38;7.90;;;4.87;;
6566;SDS011;3317;43.994;22.878;2022-08-04T04:58:10;6.53;;;4.83;;
6566;SDS011;3317;43.994;22.878;2022-08-04T05:00:52;9.17;;;4.67;;
6566;SDS011;3317;43.994;22.878;2022-08-04T05:03:43;5.50;;;4.80;;
6566;SDS011;3317;43.994;22.878;2022-08-04T05:09:17;7.20;;;5.17;;
6566;SDS011;3317;43.994;22.878;2022-08-04T05:15:09;7.37;;;4.83;;
6566;SDS011;3317;43.994;22.878;2022-08-04T05:17:42;5.50;;;4.80;;
6566;SDS011;3317;43.994;22.878;2022-08-04T05:20:18;6.70;;;4.50;;
6566;SDS011;3317;43.994;22.878;2022-08-04T05:22:51;7.23;;;4.80;;
6566;SDS011;3317;43.994;22.878;2022-08-04T05:25:23;10.87;;;5.27;;
6566;SDS011;3317;43.994;22.878;2022-08-04T05:27:55;6.13;;;5.20;;
6566;SDS011;3317;43.994;22.878;2022-08-04T05:30:26;7.77;;;5.23;;
6566;SDS011;3317;43.994;22.878;2022-08-04T05:32:57;7.90;;;4.50;;
6566;SDS011;3317;43.994;22.878;2022-08-04T05:35:29;5.20;;;4.43;;
6566;SDS011;3317;43.994;22.878;2022-08-04T05:38:01;9.43;;;4.80;;
6566;SDS011;3317;43.994;22.878;2022-08-04T05:40:30;7.50;;;4.90;;
6566;SDS011;3317;43.994;22.878;2022-08-04T05:42:59;5.20;;;3.70;;
6566;SDS011;3317;43.994;22.878;2022-08-04T05:45:27;5.90;;;3.97;;
6566;SDS011;3317;43.994;22.878;2022-08-04T05:47:55;5.67;;;3.40;;
6566;SDS011;3317;43.994;22.878;2022-08-04T05:50:22;4.43;;;3.60;;
6566;SDS011;3317;43.994;22.878;2022-08-04T05:52:50;4.77;;;3.10;;
6566;SDS011;3317;43.994;22.878;2022-08-04T05:55:23;4.00;;;2.93;;
6566;SDS011;3317;43.994;22.878;2022-08-04T05:57:51;11.27;;;3.27;;
6566;SDS011;3317;43.994;22.878;2022-08-04T06:00:21;5.00;;;3.10;;
6566;SDS011;3317;43.994;22.878;2022-08-04T06:02:51;5.17;;;3.77;;
6566;SDS011;3317;43.994;22.878;2022-08-04T06:05:20;10.50;;;4.00;;
6566;SDS011;3317;43.994;22.878;2022-08-04T06:07:48;4.50;;;3.60;;
6566;SDS011;3317;43.994;22.878;2022-08-04T06:10:15;7.27;;;4.00;;
6566;SDS011;3317;43.994;22.878;2022-08-04T06:12:48;5.40;;;3.17;;
6566;SDS011;3317;43.994;22.878;2022-08-04T06:15:22;8.10;;;3.47;;
6566;SDS011;3317;43.994;22.878;2022-08-04T06:18:00;7.40;;;3.67;;
6566;SDS011;3317;43.994;22.878;2022-08-04T06:20:34;7.67;;;3.00;;
6566;SDS011;3317;43.994;22.878;2022-08-04T06:23:05;11.53;;;3.10;;
6566;SDS011;3317;43.994;22.878;2022-08-04T06:25:35;5.93;;;3.63;;
6566;SDS011;3317;43.994;22.878;2022-08-04T06:28:08;3.73;;;3.07;;
6566;SDS011;3317;43.994;22.878;2022-08-04T06:30:36;3.80;;;3.30;;
6566;SDS011;3317;43.994;22.878;2022-08-04T06:33:07;3.83;;;3.13;;
6566;SDS011;3317;43.994;22.878;2022-08-04T06:35:48;4.63;;;3.80;;
6566;SDS011;3317;43.994;22.878;2022-08-04T06:38:19;7.83;;;3.53;;
6566;SDS011;3317;43.994;22.878;2022-08-04T06:40:47;4.90;;;3.57;;
6566;SDS011;3317;43.994;22.878;2022-08-04T06:43:16;3.50;;;3.00;;
6566;SDS011;3317;43.994;22.878;2022-08-04T06:45:44;6.03;;;3.03;;
6566;SDS011;3317;43.994;22.878;2022-08-04T06:48:13;6.90;;;3.00;;
6566;SDS011;3317;43.994;22.878;2022-08-04T06:50:42;4.47;;;3.50;;
6566;SDS011;3317;43.994;22.878;2022-08-04T06:53:12;5.23;;;3.57;;
6566;SDS011;3317;43.994;22.878;2022-08-04T06:55:40;7.07;;;3.70;;
6566;SDS011;3317;43.994;22.878;2022-08-04T06:58:09;4.53;;;3.17;;
6566;SDS011;3317;43.994;22.878;2022-08-04T07:00:40;3.90;;;3.27;;
6566;SDS011;3317;43.994;22.878;2022-08-04T07:03:08;4.77;;;3.67;;
6566;SDS011;3317;43.994;22.878;2022-08-04T07:05:36;9.20;;;3.10;;
6566;SDS011;3317;43.994;22.878;2022-08-04T07:08:05;4.40;;;3.00;;
6566;SDS011;3317;43.994;22.878;2022-08-04T07:10:33;4.53;;;3.20;;
6566;SDS011;3317;43.994;22.878;2022-08-04T07:13:01;7.63;;;3.40;;
6566;SDS011;3317;43.994;22.878;2022-08-04T07:15:28;6.20;;;3.30;;
6566;SDS011;3317;43.994;22.878;2022-08-04T07:17:58;3.93;;;3.37;;
6566;SDS011;3317;43.994;22.878;2022-08-04T07:20:28;5.93;;;3.10;;
6566;SDS011;3317;43.994;22.878;2022-08-04T07:22:56;8.30;;;3.43;;
6566;SDS011;3317;43.994;22.878;2022-08-04T07:25:25;9.03;;;3.53;;
6566;SDS011;3317;43.994;22.878;2022-08-04T07:27:53;3.70;;;3.37;;
6566;SDS011;3317;43.994;22.878;2022-08-04T07:30:21;4.60;;;3.10;;
6566;SDS011;3317;43.994;22.878;2022-08-04T07:32:51;5.90;;;3.73;;
6566;SDS011;3317;43.994;22.878;2022-08-04T07:35:21;3.63;;;2.97;;
6566;SDS011;3317;43.994;22.878;2022-08-04T07:37:51;3.57;;;2.80;;
6566;SDS011;3317;43.994;22.878;2022-08-04T07:40:18;3.87;;;2.53;;
6566;SDS011;3317;43.994;22.878;2022-08-04T07:42:46;13.03;;;3.33;;
6566;SDS011;3317;43.994;22.878;2022-08-04T07:45:14;9.07;;;3.07;;
6566;SDS011;3317;43.994;22.878;2022-08-04T07:47:44;7.10;;;3.17;;
6566;SDS011;3317;43.994;22.878;2022-08-04T07:50:11;2.93;;;2.67;;
6566;SDS011;3317;43.994;22.878;2022-08-04T07:52:42;7.90;;;3.67;;
6566;SDS011;3317;43.994;22.878;2022-08-04T07:55:10;7.13;;;3.53;;
6566;SDS011;3317;43.994;22.878;2022-08-04T07:57:39;4.53;;;2.80;;
6566;SDS011;3317;43.994;22.878;2022-08-04T08:00:06;5.67;;;2.97;;
6566;SDS011;3317;43.994;22.878;2022-08-04T08:02:35;3.33;;;3.00;;
6566;SDS011;3317;43.994;22.878;2022-08-04T08:05:03;5.60;;;3.20;;
6566;SDS011;3317;43.994;22.878;2022-08-04T08:07:33;5.60;;;3.00;;
6566;SDS011;3317;43.994;22.878;2022-08-04T08:10:04;3.83;;;2.70;;
6566;SDS011;3317;43.994;22.878;2022-08-04T08:12:38;3.33;;;3.00;;
6566;SDS011;3317;43.994;22.878;2022-08-04T08:15:08;2.80;;;2.50;;
6566;SDS011;3317;43.994;22.878;2022-08-04T08:17:37;4.60;;;2.90;;
6566;SDS011;3317;43.994;22.878;2022-08-04T08:20:06;3.87;;;2.50;;
6566;SDS011;3317;43.994;22.878;2022-08-04T08:22:35;6.57;;;3.20;;
6566;SDS011;3317;43.994;22.878;2022-08-04T08:25:04;3.83;;;3.43;;
6566;SDS011;3317;43.994;22.878;2022-08-04T08:27:32;4.93;;;2.97;;
6566;SDS011;3317;43.994;22.878;2022-08-04T08:30:00;3.87;;;3.10;;
6566;SDS011;3317;43.994;22.878;2022-08-04T08:32:27;6.27;;;3.33;;
6566;SDS011;3317;43.994;22.878;2022-08-04T08:34:54;6.77;;;3.17;;
6566;SDS011;3317;43.994;22.878;2022-08-04T08:37:25;4.03;;;3.63;;
6566;SDS011;3317;43.994;22.878;2022-08-04T08:40:07;5.53;;;2.80;;
6566;SDS011;3317;43.994;22.878;2022-08-04T08:45:51;2.93;;;2.60;;
6566;SDS011;3317;43.994;22.878;2022-08-04T08:48:45;4.17;;;2.90;;
6566;SDS011;3317;43.994;22.878;2022-08-04T08:51:48;4.97;;;2.67;;
6566;SDS011;3317;43.994;22.878;2022-08-04T08:57:31;3.40;;;2.67;;
6566;SDS011;3317;43.994;22.878;2022-08-04T09:00:10;5.50;;;3.10;;
6566;SDS011;3317;43.994;22.878;2022-08-04T09:06:02;4.50;;;2.80;;
6566;SDS011;3317;43.994;22.878;2022-08-04T09:08:40;3.03;;;2.80;;
6566;SDS011;3317;43.994;22.878;2022-08-04T09:11:28;5.57;;;2.60;;
6566;SDS011;3317;43.994;22.878;2022-08-04T09:14:07;3.63;;;2.33;;
6566;SDS011;3317;43.994;22.878;2022-08-04T09:16:44;4.03;;;2.60;;
6566;SDS011;3317;43.994;22.878;2022-08-04T09:19:18;2.70;;;2.50;;
6566;SDS011;3317;43.994;22.878;2022-08-04T09:21:52;3.60;;;3.03;;
6566;SDS011;3317;43.994;22.878;2022-08-04T09:24:28;6.53;;;2.90;;
6566;SDS011;3317;43.994;22.878;2022-08-04T09:27:04;3.07;;;2.77;;
6566;SDS011;3317;43.994;22.878;2022-08-04T09:29:42;4.43;;;2.57;;
6566;SDS011;3317;43.994;22.878;2022-08-04T09:32:20;5.03;;;3.00;;
6566;SDS011;3317;43.994;22.878;2022-08-04T09:34:56;3.10;;;2.80;;
6566;SDS011;3317;43.994;22.878;2022-08-04T09:37:32;4.60;;;2.73;;
6566;SDS011;3317;43.994;22.878;2022-08-04T09:40:08;6.63;;;3.33;;
6566;SDS011;3317;43.994;22.878;2022-08-04T09:42:45;4.50;;;3.00;;
6566;SDS011;3317;43.994;22.878;2022-08-04T09:45:21;8.23;;;2.77;;
6566;SDS011;3317;43.994;22.878;2022-08-04T09:47:54;6.00;;;3.30;;
6566;SDS011;3317;43.994;22.878;2022-08-04T09:50:28;6.23;;;2.37;;
6566;SDS011;3317;43.994;22.878;2022-08-04T09:53:02;3.13;;;2.70;;
6566;SDS011;3317;43.994;22.878;2022-08-04T09:55:41;5.50;;;2.67;;
6566;SDS011;3317;43.994;22.878;2022-08-04T09:58:23;3.53;;;2.53;;
6566;SDS011;3317;43.994;22.878;2022-08-04T10:01:01;6.27;;;2.50;;
6566;SDS011;3317;43.994;22.878;2022-08-04T10:03:34;4.80;;;2.60;;
6566;SDS011;3317;43.994;22.878;2022-08-04T10:06:05;3.10;;;2.80;;
6566;SDS011;3317;43.994;22.878;2022-08-04T10:08:53;4.73;;;2.20;;
6566;SDS011;3317;43.994;22.878;2022-08-04T10:11:45;2.70;;;2.50;;
6566;SDS011;3317;43.994;22.878;2022-08-04T10:14:26;3.43;;;2.83;;
6566;SDS011;3317;43.994;22.878;2022-08-04T10:17:10;3.00;;;2.70;;
6566;SDS011;3317;43.994;22.878;2022-08-04T10:19:49;5.73;;;2.83;;
6566;SDS011;3317;43.994;22.878;2022-08-04T10:22:29;2.70;;;2.50;;
6566;SDS011;3317;43.994;22.878;2022-08-04T10:25:02;2.80;;;2.60;;
6566;SDS011;3317;43.994;22.878;2022-08-04T10:27:42;2.60;;;2.40;;
6566;SDS011;3317;43.994;22.878;2022-08-04T10:30:12;3.80;;;2.67;;
6566;SDS011;3317;43.994;22.878;2022-08-04T10:32:46;6.83;;;2.70;;
6566;SDS011;3317;43.994;22.878;2022-08-04T10:35:20;3.63;;;2.53;;
6566;SDS011;3317;43.994;22.878;2022-08-04T10:38:00;4.20;;;2.73;;
6566;SDS011;3317;43.994;22.878;2022-08-04T10:40:38;3.00;;;2.33;;
6566;SDS011;3317;43.994;22.878;2022-08-04T10:43:24;3.90;;;2.63;;
6566;SDS011;3317;43.994;22.878;2022-08-04T10:46:04;3.67;;;3.00;;
6566;SDS011;3317;43.994;22.878;2022-08-04T10:48:38;7.97;;;2.97;;
6566;SDS011;3317;43.994;22.878;2022-08-04T10:51:10;2.70;;;2.50;;
6566;SDS011;3317;43.994;22.878;2022-08-04T10:53:52;3.07;;;2.70;;
6566;SDS011;3317;43.994;22.878;2022-08-04T10:56:27;2.60;;;2.40;;
6566;SDS011;3317;43.994;22.878;2022-08-04T10:58:59;5.07;;;2.63;;
6566;SDS011;3317;43.994;22.878;2022-08-04T11:01:32;5.27;;;2.87;;
6566;SDS011;3317;43.994;22.878;2022-08-04T11:04:07;4.40;;;2.47;;
6566;SDS011;3317;43.994;22.878;2022-08-04T11:06:40;4.80;;;2.73;;
6566;SDS011;3317;43.994;22.878;2022-08-04T11:09:10;7.60;;;2.50;;
6566;SDS011;3317;43.994;22.878;2022-08-04T11:11:40;3.80;;;2.70;;
6566;SDS011;3317;43.994;22.878;2022-08-04T11:14:14;3.40;;;2.37;;
6566;SDS011;3317;43.994;22.878;2022-08-04T11:16:45;4.13;;;2.30;;
6566;SDS011;3317;43.994;22.878;2022-08-04T11:19:22;4.40;;;2.60;;
6566;SDS011;3317;43.994;22.878;2022-08-04T11:21:59;2.73;;;2.30;;
6566;SDS011;3317;43.994;22.878;2022-08-04T11:24:34;2.60;;;2.40;;
6566;SDS011;3317;43.994;22.878;2022-08-04T11:27:18;2.53;;;2.33;;
6566;SDS011;3317;43.994;22.878;2022-08-04T11:29:55;6.00;;;3.07;;
6566;SDS011;3317;43.994;22.878;2022-08-04T11:32:31;2.90;;;2.60;;
6566;SDS011;3317;43.994;22.878;2022-08-04T11:35:08;5.43;;;2.53;;
6566;SDS011;3317;43.994;22.878;2022-08-04T11:37:42;3.60;;;2.53;;
6566;SDS011;3317;43.994;22.878;2022-08-04T11:40:15;2.40;;;2.20;;
6566;SDS011;3317;43.994;22.878;2022-08-04T11:42:51;6.47;;;2.87;;
6566;SDS011;3317;43.994;22.878;2022-08-04T11:45:29;4.10;;;2.80;;
6566;SDS011;3317;43.994;22.878;2022-08-04T11:48:02;3.57;;;2.27;;
6566;SDS011;3317;43.994;22.878;2022-08-04T11:50:41;3.50;;;2.50;;
6566;SDS011;3317;43.994;22.878;2022-08-04T11:53:15;3.70;;;2.40;;
6566;SDS011;3317;43.994;22.878;2022-08-04T11:55:48;5.73;;;2.70;;
6566;SDS011;3317;43.994;22.878;2022-08-04T11:58:17;3.23;;;2.43;;
6566;SDS011;3317;43.994;22.878;2022-08-04T12:00:53;3.10;;;2.50;;
6566;SDS011;3317;43.994;22.878;2022-08-04T12:03:31;2.80;;;2.60;;
6566;SDS011;3317;43.994;22.878;2022-08-04T12:06:12;3.10;;;2.60;;
6566;SDS011;3317;43.994;22.878;2022-08-04T12:08:50;2.87;;;2.50;;
6566;SDS011;3317;43.994;22.878;2022-08-04T12:11:28;3.80;;;2.50;;
6566;SDS011;3317;43.994;22.878;2022-08-04T12:14:36;2.33;;;2.23;;
6566;SDS011;3317;43.994;22.878;2022-08-04T12:17:09;2.57;;;2.20;;
6566;SDS011;3317;43.994;22.878;2022-08-04T12:19:40;3.33;;;2.53;;
6566;SDS011;3317;43.994;22.878;2022-08-04T12:22:17;3.50;;;2.30;;
6566;SDS011;3317;43.994;22.878;2022-08-04T12:24:48;3.97;;;2.60;;
6566;SDS011;3317;43.994;22.878;2022-08-04T12:27:20;3.13;;;2.60;;
6566;SDS011;3317;43.994;22.878;2022-08-04T12:29:50;3.83;;;2.47;;
6566;SDS011;3317;43.994;22.878;2022-08-04T12:32:20;3.63;;;2.73;;
6566;SDS011;3317;43.994;22.878;2022-08-04T12:34:53;2.60;;;2.40;;
6566;SDS011;3317;43.994;22.878;2022-08-04T12:37:31;3.60;;;2.50;;
6566;SDS011;3317;43.994;22.878;2022-08-04T12:40:08;2.93;;;2.40;;
6566;SDS011;3317;43.994;22.878;2022-08-04T12:42:44;3.87;;;2.70;;
6566;SDS011;3317;43.994;22.878;2022-08-04T12:45:18;2.70;;;2.50;;
6566;SDS011;3317;43.994;22.878;2022-08-04T12:47:48;2.70;;;2.50;;
6566;SDS011;3317;43.994;22.878;2022-08-04T12:50:18;2.87;;;2.67;;
6566;SDS011;3317;43.994;22.878;2022-08-04T12:52:51;2.90;;;2.70;;
6566;SDS011;3317;43.994;22.878;2022-08-04T12:55:24;4.00;;;2.87;;
6566;SDS011;3317;43.994;22.878;2022-08-04T12:57:55;3.73;;;2.30;;
6566;SDS011;3317;43.994;22.878;2022-08-04T13:00:25;8.30;;;2.63;;
6566;SDS011;3317;43.994;22.878;2022-08-04T13:02:57;3.13;;;2.50;;
6566;SDS011;3317;43.994;22.878;2022-08-04T13:05:43;3.07;;;2.67;;
6566;SDS011;3317;43.994;22.878;2022-08-04T13:08:13;3.00;;;2.50;;
6566;SDS011;3317;43.994;22.878;2022-08-04T13:10:46;2.70;;;2.23;;
6566;SDS011;3317;43.994;22.878;2022-08-04T13:13:15;3.47;;;2.70;;
6566;SDS011;3317;43.994;22.878;2022-08-04T13:15:54;3.20;;;2.87;;
6566;SDS011;3317;43.994;22.878;2022-08-04T13:18:24;3.30;;;2.70;;
6566;SDS011;3317;43.994;22.878;2022-08-04T13:20:52;6.40;;;2.83;;
6566;SDS011;3317;43.994;22.878;2022-08-04T13:23:23;4.67;;;2.70;;
6566;SDS011;3317;43.994;22.878;2022-08-04T13:25:52;2.97;;;2.77;;
6566;SDS011;3317;43.994;22.878;2022-08-04T13:28:23;2.70;;;2.50;;
6566;SDS011;3317;43.994;22.878;2022-08-04T13:30:55;2.67;;;2.47;;
6566;SDS011;3317;43.994;22.878;2022-08-04T13:33:27;3.30;;;2.80;;
6566;SDS011;3317;43.994;22.878;2022-08-04T13:35:55;2.70;;;2.50;;
6566;SDS011;3317;43.994;22.878;2022-08-04T13:38:26;6.13;;;2.37;;
6566;SDS011;3317;43.994;22.878;2022-08-04T13:40:55;5.07;;;2.97;;
6566;SDS011;3317;43.994;22.878;2022-08-04T13:43:26;4.87;;;2.57;;
6566;SDS011;3317;43.994;22.878;2022-08-04T13:45:59;5.43;;;2.60;;
6566;SDS011;3317;43.994;22.878;2022-08-04T13:48:31;3.47;;;2.93;;
6566;SDS011;3317;43.994;22.878;2022-08-04T13:51:00;2.70;;;2.50;;
6566;SDS011;3317;43.994;22.878;2022-08-04T13:53:31;4.87;;;2.60;;
6566;SDS011;3317;43.994;22.878;2022-08-04T13:56:00;3.97;;;3.30;;
6566;SDS011;3317;43.994;22.878;2022-08-04T13:58:31;5.73;;;2.70;;
6566;SDS011;3317;43.994;22.878;2022-08-04T14:01:02;3.13;;;2.50;;
6566;SDS011;3317;43.994;22.878;2022-08-04T14:03:35;3.07;;;2.80;;
6566;SDS011;3317;43.994;22.878;2022-08-04T14:06:08;4.53;;;2.93;;
6566;SDS011;3317;43.994;22.878;2022-08-04T14:08:51;3.50;;;3.20;;
6566;SDS011;3317;43.994;22.878;2022-08-04T14:11:21;3.90;;;2.87;;
6566;SDS011;3317;43.994;22.878;2022-08-04T14:14:05;3.97;;;3.20;;
6566;SDS011;3317;43.994;22.878;2022-08-04T14:16:53;4.60;;;2.90;;
6566;SDS011;3317;43.994;22.878;2022-08-04T14:19:25;4.53;;;2.80;;
6566;SDS011;3317;43.994;22.878;2022-08-04T14:21:52;3.20;;;2.70;;
6566;SDS011;3317;43.994;22.878;2022-08-04T14:24:24;12.77;;;3.63;;
6566;SDS011;3317;43.994;22.878;2022-08-04T14:26:54;4.13;;;3.13;;
6566;SDS011;3317;43.994;22.878;2022-08-04T14:29:25;4.00;;;3.60;;
6566;SDS011;3317;43.994;22.878;2022-08-04T14:32:03;7.30;;;2.90;;
6566;SDS011;3317;43.994;22.878;2022-08-04T14:34:36;3.27;;;2.97;;
6566;SDS011;3317;43.994;22.878;2022-08-04T14:37:08;3.60;;;2.70;;
6566;SDS011;3317;43.994;22.878;2022-08-04T14:39:39;3.30;;;3.00;;
6566;SDS011;3317;43.994;22.878;2022-08-04T14:42:11;5.07;;;2.70;;
6566;SDS011;3317;43.994;22.878;2022-08-04T14:44:51;3.20;;;2.90;;
6566;SDS011;3317;43.994;22.878;2022-08-04T14:47:27;5.23;;;2.93;;
6566;SDS011;3317;43.994;22.878;2022-08-04T14:50:04;3.60;;;3.20;;
6566;SDS011;3317;43.994;22.878;2022-08-04T14:52:32;4.20;;;3.20;;
6566;SDS011;3317;43.994;22.878;2022-08-04T14:55:16;5.10;;;2.97;;
6566;SDS011;3317;43.994;22.878;2022-08-04T14:57:44;3.47;;;2.90;;
6566;SDS011;3317;43.994;22.878;2022-08-04T15:00:12;3.33;;;3.03;;
6566;SDS011;3317;43.994;22.878;2022-08-04T15:02:51;3.90;;;3.03;;
6566;SDS011;3317;43.994;22.878;2022-08-04T15:05:22;3.30;;;2.60;;
6566;SDS011;3317;43.994;22.878;2022-08-04T15:07:49;3.30;;;3.00;;
6566;SDS011;3317;43.994;22.878;2022-08-04T15:10:20;5.77;;;2.83;;
6566;SDS011;3317;43.994;22.878;2022-08-04T15:12:48;3.80;;;3.33;;
6566;SDS011;3317;43.994;22.878;2022-08-04T15:15:15;4.40;;;3.37;;
6566;SDS011;3317;43.994;22.878;2022-08-04T15:17:43;3.20;;;2.90;;
6566;SDS011;3317;43.994;22.878;2022-08-04T15:20:12;4.50;;;2.93;;
6566;SDS011;3317;43.994;22.878;2022-08-04T15:22:39;6.30;;;3.50;;
6566;SDS011;3317;43.994;22.878;2022-08-04T15:25:06;3.53;;;3.23;;
6566;SDS011;3317;43.994;22.878;2022-08-04T15:27:38;3.60;;;3.30;;
6566;SDS011;3317;43.994;22.878;2022-08-04T15:30:07;5.00;;;3.07;;
6566;SDS011;3317;43.994;22.878;2022-08-04T15:32:37;2.90;;;2.70;;
6566;SDS011;3317;43.994;22.878;2022-08-04T15:35:08;3.60;;;3.00;;
6566;SDS011;3317;43.994;22.878;2022-08-04T15:37:38;3.50;;;3.20;;
6566;SDS011;3317;43.994;22.878;2022-08-04T15:40:13;3.40;;;3.10;;
6566;SDS011;3317;43.994;22.878;2022-08-04T15:42:46;3.40;;;3.07;;
6566;SDS011;3317;43.994;22.878;2022-08-04T15:45:29;6.77;;;3.50;;
6566;SDS011;3317;43.994;22.878;2022-08-04T15:48:22;4.07;;;2.80;;
6566;SDS011;3317;43.994;22.878;2022-08-04T15:51:02;3.80;;;2.83;;
6566;SDS011;3317;43.994;22.878;2022-08-04T15:56:47;3.10;;;2.87;;
6566;SDS011;3317;43.994;22.878;2022-08-04T15:59:16;4.03;;;3.10;;
6566;SDS011;3317;43.994;22.878;2022-08-04T16:02:35;4.30;;;3.53;;
6566;SDS011;3317;43.994;22.878;2022-08-04T16:08:13;3.27;;;2.97;;
6566;SDS011;3317;43.994;22.878;2022-08-04T16:10:46;3.77;;;3.30;;
6566;SDS011;3317;43.994;22.878;2022-08-04T16:13:15;3.27;;;2.97;;
6566;SDS011;3317;43.994;22.878;2022-08-04T16:15:47;4.00;;;3.47;;
6566;SDS011;3317;43.994;22.878;2022-08-04T16:18:21;3.60;;;3.30;;
6566;SDS011;3317;43.994;22.878;2022-08-04T16:21:05;3.70;;;3.40;;
6566;SDS011;3317;43.994;22.878;2022-08-04T16:26:50;3.30;;;3.00;;
6566;SDS011;3317;43.994;22.878;2022-08-04T16:29:27;4.00;;;3.60;;
6566;SDS011;3317;43.994;22.878;2022-08-04T16:32:20;3.30;;;3.00;;
6566;SDS011;3317;43.994;22.878;2022-08-04T16:34:53;5.63;;;3.80;;
6566;SDS011;3317;43.994;22.878;2022-08-04T16:37:28;4.30;;;3.83;;
6566;SDS011;3317;43.994;22.878;2022-08-04T16:43:03;3.90;;;3.60;;
6566;SDS011;3317;43.994;22.878;2022-08-04T16:49:05;4.30;;;3.57;;
6566;SDS011;3317;43.994;22.878;2022-08-04T16:51:33;4.47;;;3.53;;
6566;SDS011;3317;43.994;22.878;2022-08-04T16:54:00;7.70;;;3.70;;
6566;SDS011;3317;43.994;22.878;2022-08-04T16:56:32;5.10;;;3.40;;